<?xml version="1.0" encoding="UTF-8" standalone="no" ?>
<gpx xmlns="http://www.topografix.com/GPX/1/1" xmlns:xsi="http://www.w3.org/2001/XMLSchema-instance" xsi:schemaLocation="http://www.topografix.com/GPX/1/1 http://www.topografix.com/GPX/1/1/gpx.xsd" version="1.1" creator="VisuGPX - https://www.visugpx.com">
  <metadata>
    <name>Edirne-Sarajevo</name>
  </metadata>
  <trk>
    <name><![CDATA[Tour d'Europe: étape 667]]></name>
    <extensions>
      <line xmlns="http://www.topografix.com/GPX/gpx_style/0/2">
        <color>00FFFF</color>
        <width>4</width>
      </line>
    </extensions>
    <trkseg>
      <trkpt lat="41.62242" lon="20.60691">
        <ele>745.165181</ele>
        <time>2022-04-26T09:02:44.230Z</time>
      </trkpt>
      <trkpt lat="41.62289" lon="20.60669">
        <ele>742.919535</ele>
        <time>2022-04-26T09:15:21.455Z</time>
      </trkpt>
      <trkpt lat="41.62083" lon="20.608">
        <ele>738.577756</ele>
        <time>2022-04-26T09:16:10.480Z</time>
      </trkpt>
      <trkpt lat="41.61869" lon="20.60714">
        <ele>734.355954</ele>
        <time>2022-04-26T09:17:06.449Z</time>
      </trkpt>
      <trkpt lat="41.61611" lon="20.60702">
        <ele>728.638495</ele>
        <time>2022-04-26T09:17:46.454Z</time>
      </trkpt>
      <trkpt lat="41.61412" lon="20.60775">
        <ele>730.658653</ele>
        <time>2022-04-26T09:18:44.456Z</time>
      </trkpt>
      <trkpt lat="41.61222" lon="20.60829">
        <ele>733.375275</ele>
        <time>2022-04-26T09:19:42.452Z</time>
      </trkpt>
      <trkpt lat="41.60992" lon="20.60831">
        <ele>726.461601</ele>
        <time>2022-04-26T09:20:34.488Z</time>
      </trkpt>
      <trkpt lat="41.60742" lon="20.60782">
        <ele>719.060875</ele>
        <time>2022-04-26T09:21:16.451Z</time>
      </trkpt>
      <trkpt lat="41.60516" lon="20.60779">
        <ele>719.266478</ele>
        <time>2022-04-26T09:22:07.454Z</time>
      </trkpt>
      <trkpt lat="41.60367" lon="20.60885">
        <ele>720.102435</ele>
        <time>2022-04-26T09:23:15.455Z</time>
      </trkpt>
      <trkpt lat="41.60222" lon="20.6095">
        <ele>721.489939</ele>
        <time>2022-04-26T09:24:16.452Z</time>
      </trkpt>
      <trkpt lat="41.59991" lon="20.60955">
        <ele>720.146213</ele>
        <time>2022-04-26T09:24:56.470Z</time>
      </trkpt>
      <trkpt lat="41.59788" lon="20.61124">
        <ele>705.359736</ele>
        <time>2022-04-26T09:25:43.483Z</time>
      </trkpt>
      <trkpt lat="41.59623" lon="20.61343">
        <ele>699.156175</ele>
        <time>2022-04-26T09:26:12.476Z</time>
      </trkpt>
      <trkpt lat="41.59459" lon="20.61506">
        <ele>704.345282</ele>
        <time>2022-04-26T09:27:08.485Z</time>
      </trkpt>
      <trkpt lat="41.59259" lon="20.61657">
        <ele>701.113595</ele>
        <time>2022-04-26T09:27:58.477Z</time>
      </trkpt>
      <trkpt lat="41.59092" lon="20.61836">
        <ele>708.368292</ele>
        <time>2022-04-26T09:29:22.484Z</time>
      </trkpt>
      <trkpt lat="41.58923" lon="20.62006">
        <ele>707.005608</ele>
        <time>2022-04-26T09:30:21.475Z</time>
      </trkpt>
      <trkpt lat="41.58662" lon="20.62114">
        <ele>695.60234</ele>
        <time>2022-04-26T09:31:00.496Z</time>
      </trkpt>
      <trkpt lat="41.58538" lon="20.62388">
        <ele>692.733837</ele>
        <time>2022-04-26T09:31:53.494Z</time>
      </trkpt>
      <trkpt lat="41.58351" lon="20.62518">
        <ele>701.684528</ele>
        <time>2022-04-26T09:32:59.502Z</time>
      </trkpt>
      <trkpt lat="41.58112" lon="20.62418">
        <ele>692.082169</ele>
        <time>2022-04-26T09:33:42.489Z</time>
      </trkpt>
      <trkpt lat="41.5799" lon="20.62083">
        <ele>686.974094</ele>
        <time>2022-04-26T09:34:16.484Z</time>
      </trkpt>
      <trkpt lat="41.57953" lon="20.61758">
        <ele>682.129354</ele>
        <time>2022-04-26T09:34:56.466Z</time>
      </trkpt>
      <trkpt lat="41.57718" lon="20.61724">
        <ele>683.084032</ele>
        <time>2022-04-26T09:35:52.476Z</time>
      </trkpt>
      <trkpt lat="41.57491" lon="20.6174">
        <ele>676.942411</ele>
        <time>2022-04-26T09:36:53.478Z</time>
      </trkpt>
      <trkpt lat="41.57279" lon="20.61709">
        <ele>677.813064</ele>
        <time>2022-04-26T09:38:00.477Z</time>
      </trkpt>
      <trkpt lat="41.57058" lon="20.61723">
        <ele>674.824248</ele>
        <time>2022-04-26T09:38:48.495Z</time>
      </trkpt>
      <trkpt lat="41.5683" lon="20.61713">
        <ele>677.364748</ele>
        <time>2022-04-26T09:39:38.479Z</time>
      </trkpt>
      <trkpt lat="41.56731" lon="20.61934">
        <ele>678.804299</ele>
        <time>2022-04-26T09:41:13.496Z</time>
      </trkpt>
      <trkpt lat="41.56579" lon="20.62026">
        <ele>687.58632</ele>
        <time>2022-04-26T09:42:59.478Z</time>
      </trkpt>
      <trkpt lat="41.56381" lon="20.61892">
        <ele>688.281438</ele>
        <time>2022-04-26T09:44:16.511Z</time>
      </trkpt>
      <trkpt lat="41.5618" lon="20.61778">
        <ele>688.028446</ele>
        <time>2022-04-26T09:45:02.485Z</time>
      </trkpt>
      <trkpt lat="41.55912" lon="20.61669">
        <ele>682.204994</ele>
        <time>2022-04-26T09:45:42.517Z</time>
      </trkpt>
      <trkpt lat="41.55622" lon="20.61733">
        <ele>665.949113</ele>
        <time>2022-04-26T09:46:26.479Z</time>
      </trkpt>
      <trkpt lat="41.55406" lon="20.61644">
        <ele>652.770642</ele>
        <time>2022-04-26T09:46:53.478Z</time>
      </trkpt>
      <trkpt lat="41.55185" lon="20.61561">
        <ele>645.462236</ele>
        <time>2022-04-26T09:47:48.492Z</time>
      </trkpt>
      <trkpt lat="41.55015" lon="20.61362">
        <ele>647.845279</ele>
        <time>2022-04-26T09:48:48.456Z</time>
      </trkpt>
      <trkpt lat="41.54918" lon="20.61095">
        <ele>648.850761</ele>
        <time>2022-04-26T09:49:45.544Z</time>
      </trkpt>
      <trkpt lat="41.54784" lon="20.60847">
        <ele>644.594495</ele>
        <time>2022-04-26T09:50:38.490Z</time>
      </trkpt>
      <trkpt lat="41.54604" lon="20.60649">
        <ele>643.545601</ele>
        <time>2022-04-26T09:51:32.485Z</time>
      </trkpt>
      <trkpt lat="41.54502" lon="20.60365">
        <ele>637.115896</ele>
        <time>2022-04-26T09:52:27.477Z</time>
      </trkpt>
      <trkpt lat="41.54433" lon="20.60096">
        <ele>634.240258</ele>
        <time>2022-04-26T09:53:11.474Z</time>
      </trkpt>
      <trkpt lat="41.54333" lon="20.59861">
        <ele>631.484487</ele>
        <time>2022-04-26T09:53:51.489Z</time>
      </trkpt>
      <trkpt lat="41.54196" lon="20.59637">
        <ele>631.549382</ele>
        <time>2022-04-26T09:54:38.511Z</time>
      </trkpt>
      <trkpt lat="41.54074" lon="20.59384">
        <ele>630.538278</ele>
        <time>2022-04-26T09:55:28.489Z</time>
      </trkpt>
      <trkpt lat="41.53926" lon="20.59137">
        <ele>626.806558</ele>
        <time>2022-04-26T09:56:23.474Z</time>
      </trkpt>
      <trkpt lat="41.53753" lon="20.58963">
        <ele>624.563201</ele>
        <time>2022-04-26T09:57:10.478Z</time>
      </trkpt>
      <trkpt lat="41.53625" lon="20.58699">
        <ele>629.757961</ele>
        <time>2022-04-26T09:58:04.473Z</time>
      </trkpt>
      <trkpt lat="41.53524" lon="20.58444">
        <ele>627.414265</ele>
        <time>2022-04-26T09:58:44.470Z</time>
      </trkpt>
      <trkpt lat="41.53422" lon="20.58159">
        <ele>622.304545</ele>
        <time>2022-04-26T09:59:28.503Z</time>
      </trkpt>
      <trkpt lat="41.53192" lon="20.58044">
        <ele>622.074767</ele>
        <time>2022-04-26T10:00:31.481Z</time>
      </trkpt>
      <trkpt lat="41.52991" lon="20.57971">
        <ele>618.202869</ele>
        <time>2022-04-26T10:01:31.486Z</time>
      </trkpt>
      <trkpt lat="41.52835" lon="20.57779">
        <ele>621.32772</ele>
        <time>2022-04-26T10:02:31.491Z</time>
      </trkpt>
      <trkpt lat="41.5268" lon="20.57607">
        <ele>635.181562</ele>
        <time>2022-04-26T10:03:44.480Z</time>
      </trkpt>
      <trkpt lat="41.52483" lon="20.57543">
        <ele>640.024016</ele>
        <time>2022-04-26T10:04:57.468Z</time>
      </trkpt>
      <trkpt lat="41.52351" lon="20.57323">
        <ele>637.924771</ele>
        <time>2022-04-26T10:06:14.519Z</time>
      </trkpt>
      <trkpt lat="41.52179" lon="20.57114">
        <ele>633.227087</ele>
        <time>2022-04-26T10:07:18.504Z</time>
      </trkpt>
      <trkpt lat="41.52188" lon="20.56832">
        <ele>636.643345</ele>
        <time>2022-04-26T10:08:16.490Z</time>
      </trkpt>
      <trkpt lat="41.52148" lon="20.56608">
        <ele>645.781742</ele>
        <time>2022-04-26T10:09:41.494Z</time>
      </trkpt>
      <trkpt lat="41.5201" lon="20.56426">
        <ele>665.404044</ele>
        <time>2022-04-26T10:12:03.511Z</time>
      </trkpt>
      <trkpt lat="41.51896" lon="20.5624">
        <ele>679.017672</ele>
        <time>2022-04-26T10:14:28.491Z</time>
      </trkpt>
      <trkpt lat="41.51822" lon="20.56005">
        <ele>693.462136</ele>
        <time>2022-04-26T10:16:58.455Z</time>
      </trkpt>
      <trkpt lat="41.51753" lon="20.55756">
        <ele>709.011376</ele>
        <time>2022-04-26T10:19:37.464Z</time>
      </trkpt>
      <trkpt lat="41.51611" lon="20.55585">
        <ele>725.4887</ele>
        <time>2022-04-26T10:22:08.460Z</time>
      </trkpt>
      <trkpt lat="41.51445" lon="20.55474">
        <ele>737.919561</ele>
        <time>2022-04-26T10:24:44.541Z</time>
      </trkpt>
      <trkpt lat="41.5151" lon="20.55243">
        <ele>754.547979</ele>
        <time>2022-04-26T10:27:26.462Z</time>
      </trkpt>
      <trkpt lat="41.5153" lon="20.54997">
        <ele>763.204778</ele>
        <time>2022-04-26T10:29:59.462Z</time>
      </trkpt>
      <trkpt lat="41.51487" lon="20.54709">
        <ele>761.453993</ele>
        <time>2022-04-26T10:51:31.474Z</time>
      </trkpt>
      <trkpt lat="41.51412" lon="20.54386">
        <ele>744.72778</ele>
        <time>2022-04-26T10:52:08.468Z</time>
      </trkpt>
      <trkpt lat="41.51454" lon="20.54034">
        <ele>720.777769</ele>
        <time>2022-04-26T10:52:43.473Z</time>
      </trkpt>
      <trkpt lat="41.51547" lon="20.53737">
        <ele>697.603541</ele>
        <time>2022-04-26T10:53:23.478Z</time>
      </trkpt>
      <trkpt lat="41.51613" lon="20.53442">
        <ele>691.952621</ele>
        <time>2022-04-26T10:54:27.510Z</time>
      </trkpt>
      <trkpt lat="41.51589" lon="20.53327">
        <ele>691.952621</ele>
        <time>2022-04-26T10:57:25.569Z</time>
      </trkpt>
    </trkseg>
  </trk>
</gpx>